sensor_id;sensor_type;location;lat;lon;timestamp;P1;durP1;ratioP1;P2;durP2;ratioP2
41685;SDS011;27370;42.764;23.432;2022-08-01T00:00:12;17.17;;;14.60;;
41685;SDS011;27370;42.764;23.432;2022-08-01T00:02:38;17.42;;;14.68;;
41685;SDS011;27370;42.764;23.432;2022-08-01T00:05:05;17.52;;;15.63;;
41685;SDS011;27370;42.764;23.432;2022-08-01T00:07:33;18.83;;;16.83;;
41685;SDS011;27370;42.764;23.432;2022-08-01T00:09:59;18.20;;;16.02;;
41685;SDS011;27370;42.764;23.432;2022-08-01T00:12:25;17.45;;;15.68;;
41685;SDS011;27370;42.764;23.432;2022-08-01T00:14:51;18.10;;;16.20;;
41685;SDS011;27370;42.764;23.432;2022-08-01T00:17:16;19.13;;;17.08;;
41685;SDS011;27370;42.764;23.432;2022-08-01T00:19:42;17.85;;;15.95;;
41685;SDS011;27370;42.764;23.432;2022-08-01T00:22:07;17.25;;;15.43;;
41685;SDS011;27370;42.764;23.432;2022-08-01T00:24:33;16.35;;;14.10;;
41685;SDS011;27370;42.764;23.432;2022-08-01T00:26:58;17.45;;;14.98;;
41685;SDS011;27370;42.764;23.432;2022-08-01T00:29:24;17.27;;;14.52;;
41685;SDS011;27370;42.764;23.432;2022-08-01T00:31:49;16.85;;;14.25;;
41685;SDS011;27370;42.764;23.432;2022-08-01T00:34:15;16.45;;;14.57;;
41685;SDS011;27370;42.764;23.432;2022-08-01T00:36:40;18.98;;;15.45;;
41685;SDS011;27370;42.764;23.432;2022-08-01T00:39:06;16.90;;;15.15;;
41685;SDS011;27370;42.764;23.432;2022-08-01T00:41:31;18.15;;;16.05;;
41685;SDS011;27370;42.764;23.432;2022-08-01T00:43:57;18.42;;;16.45;;
41685;SDS011;27370;42.764;23.432;2022-08-01T00:46:22;19.40;;;16.98;;
41685;SDS011;27370;42.764;23.432;2022-08-01T00:48:48;20.35;;;16.52;;
41685;SDS011;27370;42.764;23.432;2022-08-01T00:51:13;18.75;;;16.60;;
41685;SDS011;27370;42.764;23.432;2022-08-01T00:53:40;18.70;;;16.35;;
41685;SDS011;27370;42.764;23.432;2022-08-01T00:56:06;18.60;;;16.10;;
41685;SDS011;27370;42.764;23.432;2022-08-01T00:58:32;19.85;;;16.27;;
41685;SDS011;27370;42.764;23.432;2022-08-01T01:00:59;19.27;;;16.80;;
41685;SDS011;27370;42.764;23.432;2022-08-01T01:03:24;19.73;;;17.60;;
41685;SDS011;27370;42.764;23.432;2022-08-01T01:05:56;18.65;;;16.48;;
41685;SDS011;27370;42.764;23.432;2022-08-01T01:11:09;17.50;;;15.70;;
41685;SDS011;27370;42.764;23.432;2022-08-01T01:14:00;17.75;;;15.38;;
41685;SDS011;27370;42.764;23.432;2022-08-01T01:16:29;18.55;;;16.65;;
41685;SDS011;27370;42.764;23.432;2022-08-01T01:18:58;18.40;;;16.50;;
41685;SDS011;27370;42.764;23.432;2022-08-01T01:24:36;18.70;;;15.88;;
41685;SDS011;27370;42.764;23.432;2022-08-01T01:29:56;18.65;;;15.02;;
41685;SDS011;27370;42.764;23.432;2022-08-01T01:32:25;17.98;;;15.85;;
41685;SDS011;27370;42.764;23.432;2022-08-01T01:34:58;17.58;;;15.75;;
41685;SDS011;27370;42.764;23.432;2022-08-01T01:37:27;17.80;;;15.90;;
41685;SDS011;27370;42.764;23.432;2022-08-01T01:39:54;17.08;;;15.27;;
41685;SDS011;27370;42.764;23.432;2022-08-01T01:42:21;18.35;;;15.48;;
41685;SDS011;27370;42.764;23.432;2022-08-01T01:44:50;18.05;;;15.70;;
41685;SDS011;27370;42.764;23.432;2022-08-01T01:47:16;19.23;;;14.90;;
41685;SDS011;27370;42.764;23.432;2022-08-01T01:49:43;17.15;;;15.35;;
41685;SDS011;27370;42.764;23.432;2022-08-01T01:52:12;17.85;;;15.98;;
41685;SDS011;27370;42.764;23.432;2022-08-01T01:57:09;18.65;;;16.67;;
41685;SDS011;27370;42.764;23.432;2022-08-01T01:59:37;17.98;;;15.10;;
41685;SDS011;27370;42.764;23.432;2022-08-01T02:02:04;17.67;;;15.77;;
41685;SDS011;27370;42.764;23.432;2022-08-01T02:04:32;18.13;;;16.13;;
41685;SDS011;27370;42.764;23.432;2022-08-01T02:07:01;18.20;;;16.25;;
41685;SDS011;27370;42.764;23.432;2022-08-01T02:09:28;17.85;;;15.27;;
41685;SDS011;27370;42.764;23.432;2022-08-01T02:11:56;17.35;;;15.48;;
41685;SDS011;27370;42.764;23.432;2022-08-01T02:14:24;16.67;;;14.55;;
41685;SDS011;27370;42.764;23.432;2022-08-01T02:16:52;19.25;;;14.43;;
41685;SDS011;27370;42.764;23.432;2022-08-01T02:19:22;17.88;;;15.15;;
41685;SDS011;27370;42.764;23.432;2022-08-01T02:22:00;17.27;;;14.65;;
41685;SDS011;27370;42.764;23.432;2022-08-01T02:27:11;16.63;;;14.60;;
41685;SDS011;27370;42.764;23.432;2022-08-01T02:29:42;17.35;;;15.43;;
41685;SDS011;27370;42.764;23.432;2022-08-01T02:32:14;20.15;;;16.45;;
41685;SDS011;27370;42.764;23.432;2022-08-01T02:34:46;18.70;;;16.25;;
41685;SDS011;27370;42.764;23.432;2022-08-01T02:37:14;18.08;;;15.90;;
41685;SDS011;27370;42.764;23.432;2022-08-01T02:39:42;18.38;;;15.48;;
41685;SDS011;27370;42.764;23.432;2022-08-01T02:42:12;18.35;;;14.90;;
41685;SDS011;27370;42.764;23.432;2022-08-01T02:44:39;19.00;;;15.45;;
41685;SDS011;27370;42.764;23.432;2022-08-01T02:47:08;16.27;;;14.00;;
41685;SDS011;27370;42.764;23.432;2022-08-01T02:49:36;18.25;;;13.95;;
41685;SDS011;27370;42.764;23.432;2022-08-01T02:52:07;17.15;;;14.32;;
41685;SDS011;27370;42.764;23.432;2022-08-01T02:54:34;17.02;;;13.88;;
41685;SDS011;27370;42.764;23.432;2022-08-01T02:57:02;17.00;;;13.80;;
41685;SDS011;27370;42.764;23.432;2022-08-01T02:59:29;17.30;;;13.60;;
41685;SDS011;27370;42.764;23.432;2022-08-01T03:01:58;16.27;;;13.50;;
41685;SDS011;27370;42.764;23.432;2022-08-01T03:04:26;16.52;;;14.05;;
41685;SDS011;27370;42.764;23.432;2022-08-01T03:06:54;17.42;;;15.15;;
41685;SDS011;27370;42.764;23.432;2022-08-01T03:09:23;18.75;;;14.73;;
41685;SDS011;27370;42.764;23.432;2022-08-01T03:11:52;20.05;;;15.57;;
41685;SDS011;27370;42.764;23.432;2022-08-01T03:14:19;18.20;;;14.65;;
41685;SDS011;27370;42.764;23.432;2022-08-01T03:16:46;17.42;;;15.43;;
41685;SDS011;27370;42.764;23.432;2022-08-01T03:19:14;18.50;;;16.27;;
41685;SDS011;27370;42.764;23.432;2022-08-01T03:21:43;20.02;;;17.95;;
41685;SDS011;27370;42.764;23.432;2022-08-01T03:24:09;20.17;;;17.40;;
41685;SDS011;27370;42.764;23.432;2022-08-01T03:26:36;17.52;;;14.52;;
41685;SDS011;27370;42.764;23.432;2022-08-01T03:29:05;16.15;;;13.30;;
41685;SDS011;27370;42.764;23.432;2022-08-01T03:31:35;14.13;;;10.02;;
41685;SDS011;27370;42.764;23.432;2022-08-01T03:34:02;14.48;;;9.75;;
41685;SDS011;27370;42.764;23.432;2022-08-01T03:36:28;14.35;;;9.35;;
41685;SDS011;27370;42.764;23.432;2022-08-01T03:38:57;12.35;;;9.38;;
41685;SDS011;27370;42.764;23.432;2022-08-01T03:41:26;16.33;;;11.02;;
41685;SDS011;27370;42.764;23.432;2022-08-01T03:44:03;14.57;;;10.52;;
41685;SDS011;27370;42.764;23.432;2022-08-01T03:46:34;15.20;;;9.80;;
41685;SDS011;27370;42.764;23.432;2022-08-01T03:49:26;11.43;;;8.52;;
41685;SDS011;27370;42.764;23.432;2022-08-01T03:51:58;11.52;;;8.63;;
41685;SDS011;27370;42.764;23.432;2022-08-01T03:54:28;13.60;;;9.45;;
41685;SDS011;27370;42.764;23.432;2022-08-01T03:56:58;13.68;;;9.20;;
41685;SDS011;27370;42.764;23.432;2022-08-01T03:59:26;13.38;;;9.02;;
41685;SDS011;27370;42.764;23.432;2022-08-01T04:01:52;13.85;;;9.52;;
41685;SDS011;27370;42.764;23.432;2022-08-01T04:04:19;12.82;;;9.93;;
41685;SDS011;27370;42.764;23.432;2022-08-01T04:06:45;13.35;;;8.88;;
41685;SDS011;27370;42.764;23.432;2022-08-01T04:09:11;11.23;;;8.65;;
41685;SDS011;27370;42.764;23.432;2022-08-01T04:11:37;11.60;;;8.40;;
41685;SDS011;27370;42.764;23.432;2022-08-01T04:14:03;10.60;;;8.15;;
41685;SDS011;27370;42.764;23.432;2022-08-01T04:16:28;11.20;;;7.85;;
41685;SDS011;27370;42.764;23.432;2022-08-01T04:18:54;11.13;;;7.07;;
41685;SDS011;27370;42.764;23.432;2022-08-01T04:21:24;9.68;;;7.00;;
41685;SDS011;27370;42.764;23.432;2022-08-01T04:23:54;12.85;;;6.53;;
41685;SDS011;27370;42.764;23.432;2022-08-01T04:26:23;9.43;;;6.07;;
41685;SDS011;27370;42.764;23.432;2022-08-01T04:28:50;10.10;;;6.00;;
41685;SDS011;27370;42.764;23.432;2022-08-01T04:31:19;9.80;;;5.95;;
41685;SDS011;27370;42.764;23.432;2022-08-01T04:33:47;9.90;;;6.20;;
41685;SDS011;27370;42.764;23.432;2022-08-01T04:36:15;11.30;;;6.83;;
41685;SDS011;27370;42.764;23.432;2022-08-01T04:38:44;10.57;;;6.97;;
41685;SDS011;27370;42.764;23.432;2022-08-01T04:41:12;10.07;;;6.78;;
41685;SDS011;27370;42.764;23.432;2022-08-01T04:43:38;10.23;;;6.43;;
41685;SDS011;27370;42.764;23.432;2022-08-01T04:46:05;8.95;;;5.80;;
41685;SDS011;27370;42.764;23.432;2022-08-01T04:48:32;10.82;;;5.97;;
41685;SDS011;27370;42.764;23.432;2022-08-01T04:51:01;9.68;;;6.40;;
41685;SDS011;27370;42.764;23.432;2022-08-01T04:53:26;9.63;;;6.35;;
41685;SDS011;27370;42.764;23.432;2022-08-01T04:55:52;9.00;;;5.28;;
41685;SDS011;27370;42.764;23.432;2022-08-01T04:58:18;7.53;;;5.13;;
41685;SDS011;27370;42.764;23.432;2022-08-01T05:00:44;9.55;;;5.47;;
41685;SDS011;27370;42.764;23.432;2022-08-01T05:03:10;8.85;;;5.55;;
41685;SDS011;27370;42.764;23.432;2022-08-01T05:05:36;9.85;;;5.72;;
41685;SDS011;27370;42.764;23.432;2022-08-01T05:08:04;7.40;;;4.88;;
41685;SDS011;27370;42.764;23.432;2022-08-01T05:10:31;7.65;;;4.60;;
41685;SDS011;27370;42.764;23.432;2022-08-01T05:12:56;7.63;;;4.50;;
41685;SDS011;27370;42.764;23.432;2022-08-01T05:15:22;8.57;;;4.65;;
41685;SDS011;27370;42.764;23.432;2022-08-01T05:17:47;8.77;;;4.50;;
41685;SDS011;27370;42.764;23.432;2022-08-01T05:20:13;10.43;;;4.80;;
41685;SDS011;27370;42.764;23.432;2022-08-01T05:22:38;7.10;;;4.30;;
41685;SDS011;27370;42.764;23.432;2022-08-01T05:25:04;9.93;;;4.30;;
41685;SDS011;27370;42.764;23.432;2022-08-01T05:27:30;7.00;;;4.20;;
41685;SDS011;27370;42.764;23.432;2022-08-01T05:29:56;7.93;;;4.25;;
41685;SDS011;27370;42.764;23.432;2022-08-01T05:32:22;6.45;;;4.07;;
41685;SDS011;27370;42.764;23.432;2022-08-01T05:34:48;8.30;;;3.85;;
41685;SDS011;27370;42.764;23.432;2022-08-01T05:37:13;9.80;;;3.72;;
41685;SDS011;27370;42.764;23.432;2022-08-01T05:39:39;9.73;;;3.83;;
41685;SDS011;27370;42.764;23.432;2022-08-01T05:42:05;6.15;;;3.80;;
41685;SDS011;27370;42.764;23.432;2022-08-01T05:44:31;7.28;;;3.90;;
41685;SDS011;27370;42.764;23.432;2022-08-01T05:46:56;6.10;;;3.60;;
41685;SDS011;27370;42.764;23.432;2022-08-01T05:49:22;6.60;;;3.80;;
41685;SDS011;27370;42.764;23.432;2022-08-01T05:51:47;6.63;;;3.72;;
41685;SDS011;27370;42.764;23.432;2022-08-01T05:54:13;6.65;;;3.80;;
41685;SDS011;27370;42.764;23.432;2022-08-01T05:56:38;6.32;;;3.22;;
41685;SDS011;27370;42.764;23.432;2022-08-01T05:59:04;5.40;;;2.72;;
41685;SDS011;27370;42.764;23.432;2022-08-01T06:01:29;5.65;;;2.60;;
41685;SDS011;27370;42.764;23.432;2022-08-01T06:03:55;5.88;;;2.38;;
41685;SDS011;27370;42.764;23.432;2022-08-01T06:06:21;6.10;;;2.58;;
41685;SDS011;27370;42.764;23.432;2022-08-01T06:08:46;4.55;;;2.38;;
41685;SDS011;27370;42.764;23.432;2022-08-01T06:11:12;5.32;;;2.70;;
41685;SDS011;27370;42.764;23.432;2022-08-01T06:13:38;5.63;;;2.50;;
41685;SDS011;27370;42.764;23.432;2022-08-01T06:16:04;5.32;;;2.63;;
41685;SDS011;27370;42.764;23.432;2022-08-01T06:18:29;6.57;;;2.78;;
41685;SDS011;27370;42.764;23.432;2022-08-01T06:20:55;4.57;;;2.45;;
41685;SDS011;27370;42.764;23.432;2022-08-01T06:23:20;4.70;;;2.50;;
41685;SDS011;27370;42.764;23.432;2022-08-01T06:25:46;4.60;;;2.20;;
41685;SDS011;27370;42.764;23.432;2022-08-01T06:28:12;5.18;;;2.40;;
41685;SDS011;27370;42.764;23.432;2022-08-01T06:30:38;5.45;;;2.50;;
41685;SDS011;27370;42.764;23.432;2022-08-01T06:33:03;5.78;;;2.50;;
41685;SDS011;27370;42.764;23.432;2022-08-01T06:35:29;4.55;;;2.47;;
41685;SDS011;27370;42.764;23.432;2022-08-01T06:37:56;4.25;;;2.40;;
41685;SDS011;27370;42.764;23.432;2022-08-01T06:40:22;7.03;;;2.50;;
41685;SDS011;27370;42.764;23.432;2022-08-01T06:42:47;4.85;;;2.20;;
41685;SDS011;27370;42.764;23.432;2022-08-01T06:45:13;5.03;;;2.55;;
41685;SDS011;27370;42.764;23.432;2022-08-01T06:47:39;6.45;;;2.40;;
41685;SDS011;27370;42.764;23.432;2022-08-01T06:50:06;4.53;;;2.28;;
41685;SDS011;27370;42.764;23.432;2022-08-01T06:52:33;5.93;;;2.20;;
41685;SDS011;27370;42.764;23.432;2022-08-01T06:54:59;3.22;;;2.03;;
41685;SDS011;27370;42.764;23.432;2022-08-01T06:57:24;4.68;;;2.05;;
41685;SDS011;27370;42.764;23.432;2022-08-01T06:59:50;6.88;;;2.30;;
41685;SDS011;27370;42.764;23.432;2022-08-01T07:02:16;3.53;;;2.33;;
41685;SDS011;27370;42.764;23.432;2022-08-01T07:04:41;3.38;;;2.25;;
41685;SDS011;27370;42.764;23.432;2022-08-01T07:07:07;5.68;;;2.65;;
41685;SDS011;27370;42.764;23.432;2022-08-01T07:09:32;4.13;;;2.08;;
41685;SDS011;27370;42.764;23.432;2022-08-01T07:11:58;5.60;;;2.25;;
41685;SDS011;27370;42.764;23.432;2022-08-01T07:14:24;4.03;;;2.20;;
41685;SDS011;27370;42.764;23.432;2022-08-01T07:16:50;5.15;;;2.10;;
41685;SDS011;27370;42.764;23.432;2022-08-01T07:19:16;4.88;;;2.33;;
41685;SDS011;27370;42.764;23.432;2022-08-01T07:21:42;5.07;;;2.50;;
41685;SDS011;27370;42.764;23.432;2022-08-01T07:24:08;3.92;;;2.20;;
41685;SDS011;27370;42.764;23.432;2022-08-01T07:26:35;3.15;;;2.10;;
41685;SDS011;27370;42.764;23.432;2022-08-01T07:29:01;5.88;;;2.25;;
41685;SDS011;27370;42.764;23.432;2022-08-01T07:31:27;7.80;;;2.30;;
41685;SDS011;27370;42.764;23.432;2022-08-01T07:33:53;5.32;;;2.30;;
41685;SDS011;27370;42.764;23.432;2022-08-01T07:36:19;3.38;;;2.10;;
41685;SDS011;27370;42.764;23.432;2022-08-01T07:38:45;7.80;;;2.10;;
41685;SDS011;27370;42.764;23.432;2022-08-01T07:41:11;5.45;;;2.20;;
41685;SDS011;27370;42.764;23.432;2022-08-01T07:43:36;4.07;;;2.13;;
41685;SDS011;27370;42.764;23.432;2022-08-01T07:46:02;5.38;;;2.28;;
41685;SDS011;27370;42.764;23.432;2022-08-01T07:48:28;7.03;;;2.30;;
41685;SDS011;27370;42.764;23.432;2022-08-01T07:50:54;3.63;;;2.00;;
41685;SDS011;27370;42.764;23.432;2022-08-01T07:53:20;6.18;;;2.20;;
41685;SDS011;27370;42.764;23.432;2022-08-01T07:55:45;5.45;;;2.20;;
41685;SDS011;27370;42.764;23.432;2022-08-01T07:58:11;5.72;;;2.15;;
41685;SDS011;27370;42.764;23.432;2022-08-01T08:00:36;4.65;;;2.08;;
41685;SDS011;27370;42.764;23.432;2022-08-01T08:03:02;4.03;;;2.10;;
41685;SDS011;27370;42.764;23.432;2022-08-01T08:05:28;5.00;;;2.05;;
41685;SDS011;27370;42.764;23.432;2022-08-01T08:07:54;5.75;;;2.30;;
41685;SDS011;27370;42.764;23.432;2022-08-01T08:10:20;5.30;;;2.40;;
41685;SDS011;27370;42.764;23.432;2022-08-01T08:12:45;4.80;;;2.00;;
41685;SDS011;27370;42.764;23.432;2022-08-01T08:15:12;4.93;;;2.25;;
41685;SDS011;27370;42.764;23.432;2022-08-01T08:17:38;2.25;;;1.83;;
41685;SDS011;27370;42.764;23.432;2022-08-01T08:20:05;4.30;;;1.83;;
41685;SDS011;27370;42.764;23.432;2022-08-01T08:22:31;4.20;;;2.22;;
41685;SDS011;27370;42.764;23.432;2022-08-01T08:24:57;3.10;;;1.95;;
41685;SDS011;27370;42.764;23.432;2022-08-01T08:27:23;4.47;;;2.20;;
41685;SDS011;27370;42.764;23.432;2022-08-01T08:29:48;3.97;;;1.92;;
41685;SDS011;27370;42.764;23.432;2022-08-01T08:32:14;5.72;;;2.15;;
41685;SDS011;27370;42.764;23.432;2022-08-01T08:34:39;3.00;;;1.92;;
41685;SDS011;27370;42.764;23.432;2022-08-01T08:37:05;4.03;;;2.00;;
41685;SDS011;27370;42.764;23.432;2022-08-01T08:39:30;3.55;;;1.90;;
41685;SDS011;27370;42.764;23.432;2022-08-01T08:41:58;2.60;;;1.65;;
41685;SDS011;27370;42.764;23.432;2022-08-01T08:44:24;4.97;;;2.20;;
41685;SDS011;27370;42.764;23.432;2022-08-01T08:46:50;3.28;;;2.10;;
41685;SDS011;27370;42.764;23.432;2022-08-01T08:49:20;7.50;;;2.20;;
41685;SDS011;27370;42.764;23.432;2022-08-01T08:51:49;3.92;;;2.22;;
41685;SDS011;27370;42.764;23.432;2022-08-01T08:54:16;3.40;;;2.08;;
41685;SDS011;27370;42.764;23.432;2022-08-01T08:56:43;2.72;;;2.10;;
41685;SDS011;27370;42.764;23.432;2022-08-01T08:59:11;5.50;;;2.20;;
41685;SDS011;27370;42.764;23.432;2022-08-01T09:01:38;6.45;;;2.38;;
41685;SDS011;27370;42.764;23.432;2022-08-01T09:04:04;6.25;;;2.20;;
41685;SDS011;27370;42.764;23.432;2022-08-01T09:06:30;5.20;;;2.17;;
41685;SDS011;27370;42.764;23.432;2022-08-01T09:08:58;5.33;;;2.10;;
41685;SDS011;27370;42.764;23.432;2022-08-01T09:11:24;4.95;;;2.40;;
41685;SDS011;27370;42.764;23.432;2022-08-01T09:16:39;4.30;;;2.05;;
41685;SDS011;27370;42.764;23.432;2022-08-01T09:19:07;3.28;;;1.98;;
41685;SDS011;27370;42.764;23.432;2022-08-01T09:21:38;4.55;;;1.95;;
41685;SDS011;27370;42.764;23.432;2022-08-01T09:24:12;6.93;;;2.30;;
41685;SDS011;27370;42.764;23.432;2022-08-01T09:26:39;4.72;;;2.10;;
41685;SDS011;27370;42.764;23.432;2022-08-01T09:29:05;3.53;;;2.03;;
41685;SDS011;27370;42.764;23.432;2022-08-01T09:31:39;3.83;;;2.00;;
41685;SDS011;27370;42.764;23.432;2022-08-01T09:34:06;5.78;;;2.13;;
41685;SDS011;27370;42.764;23.432;2022-08-01T09:36:43;5.35;;;2.03;;
41685;SDS011;27370;42.764;23.432;2022-08-01T09:39:16;7.72;;;2.15;;
41685;SDS011;27370;42.764;23.432;2022-08-01T09:41:47;6.28;;;2.03;;
41685;SDS011;27370;42.764;23.432;2022-08-01T09:44:13;5.07;;;2.22;;
41685;SDS011;27370;42.764;23.432;2022-08-01T09:49:15;5.60;;;2.10;;
41685;SDS011;27370;42.764;23.432;2022-08-01T09:51:52;5.43;;;2.00;;
41685;SDS011;27370;42.764;23.432;2022-08-01T09:54:27;4.40;;;2.25;;
41685;SDS011;27370;42.764;23.432;2022-08-01T09:57:06;3.80;;;2.00;;
41685;SDS011;27370;42.764;23.432;2022-08-01T09:59:35;4.07;;;1.98;;
41685;SDS011;27370;42.764;23.432;2022-08-01T10:02:02;4.25;;;2.25;;
41685;SDS011;27370;42.764;23.432;2022-08-01T10:04:28;5.22;;;2.30;;
41685;SDS011;27370;42.764;23.432;2022-08-01T10:06:53;4.40;;;2.00;;
41685;SDS011;27370;42.764;23.432;2022-08-01T10:09:30;7.18;;;2.28;;
41685;SDS011;27370;42.764;23.432;2022-08-01T10:11:57;4.65;;;1.90;;
41685;SDS011;27370;42.764;23.432;2022-08-01T10:14:25;4.30;;;2.17;;
41685;SDS011;27370;42.764;23.432;2022-08-01T10:16:56;3.40;;;2.00;;
41685;SDS011;27370;42.764;23.432;2022-08-01T10:19:24;2.88;;;1.90;;
41685;SDS011;27370;42.764;23.432;2022-08-01T10:21:53;2.80;;;2.03;;
41685;SDS011;27370;42.764;23.432;2022-08-01T10:24:20;6.70;;;1.85;;
41685;SDS011;27370;42.764;23.432;2022-08-01T10:26:47;6.68;;;2.00;;
41685;SDS011;27370;42.764;23.432;2022-08-01T10:29:16;5.80;;;2.00;;
41685;SDS011;27370;42.764;23.432;2022-08-01T10:31:44;5.55;;;2.08;;
41685;SDS011;27370;42.764;23.432;2022-08-01T10:34:10;4.90;;;2.33;;
41685;SDS011;27370;42.764;23.432;2022-08-01T10:36:40;3.83;;;1.73;;
41685;SDS011;27370;42.764;23.432;2022-08-01T10:39:09;3.22;;;2.00;;
41685;SDS011;27370;42.764;23.432;2022-08-01T10:41:35;2.67;;;1.90;;
41685;SDS011;27370;42.764;23.432;2022-08-01T10:44:02;3.85;;;1.95;;
41685;SDS011;27370;42.764;23.432;2022-08-01T10:46:29;5.25;;;2.20;;
41685;SDS011;27370;42.764;23.432;2022-08-01T10:49:01;4.35;;;2.00;;
41685;SDS011;27370;42.764;23.432;2022-08-01T10:51:29;5.32;;;2.20;;
41685;SDS011;27370;42.764;23.432;2022-08-01T10:53:56;5.72;;;2.05;;
41685;SDS011;27370;42.764;23.432;2022-08-01T10:56:22;5.22;;;2.03;;
41685;SDS011;27370;42.764;23.432;2022-08-01T10:58:49;3.67;;;2.10;;
41685;SDS011;27370;42.764;23.432;2022-08-01T11:01:26;3.80;;;1.95;;
41685;SDS011;27370;42.764;23.432;2022-08-01T11:06:26;2.53;;;1.85;;
41685;SDS011;27370;42.764;23.432;2022-08-01T11:08:53;4.82;;;2.05;;
41685;SDS011;27370;42.764;23.432;2022-08-01T11:11:21;3.10;;;2.08;;
41685;SDS011;27370;42.764;23.432;2022-08-01T11:18:55;2.95;;;1.80;;
41685;SDS011;27370;42.764;23.432;2022-08-01T11:21:20;4.13;;;2.08;;
41685;SDS011;27370;42.764;23.432;2022-08-01T11:23:49;2.80;;;1.95;;
41685;SDS011;27370;42.764;23.432;2022-08-01T11:26:18;3.33;;;2.10;;
41685;SDS011;27370;42.764;23.432;2022-08-01T11:28:45;4.07;;;2.40;;
41685;SDS011;27370;42.764;23.432;2022-08-01T11:31:31;3.38;;;2.00;;
41685;SDS011;27370;42.764;23.432;2022-08-01T11:33:57;6.47;;;2.30;;
41685;SDS011;27370;42.764;23.432;2022-08-01T11:36:23;3.17;;;2.13;;
41685;SDS011;27370;42.764;23.432;2022-08-01T11:39:10;5.25;;;2.20;;
41685;SDS011;27370;42.764;23.432;2022-08-01T11:41:39;4.57;;;2.25;;
41685;SDS011;27370;42.764;23.432;2022-08-01T11:44:17;6.40;;;1.90;;
41685;SDS011;27370;42.764;23.432;2022-08-01T11:54:26;2.95;;;2.15;;
41685;SDS011;27370;42.764;23.432;2022-08-01T11:56:57;2.78;;;2.20;;
41685;SDS011;27370;42.764;23.432;2022-08-01T11:59:24;5.93;;;2.20;;
41685;SDS011;27370;42.764;23.432;2022-08-01T12:01:51;3.95;;;2.17;;
41685;SDS011;27370;42.764;23.432;2022-08-01T12:04:16;3.08;;;2.13;;
41685;SDS011;27370;42.764;23.432;2022-08-01T12:06:42;3.25;;;2.20;;
41685;SDS011;27370;42.764;23.432;2022-08-01T12:09:17;6.80;;;2.42;;
41685;SDS011;27370;42.764;23.432;2022-08-01T12:11:45;4.68;;;2.10;;
41685;SDS011;27370;42.764;23.432;2022-08-01T12:14:20;2.45;;;2.10;;
41685;SDS011;27370;42.764;23.432;2022-08-01T12:16:53;5.25;;;2.45;;
41685;SDS011;27370;42.764;23.432;2022-08-01T12:19:22;5.85;;;2.40;;
41685;SDS011;27370;42.764;23.432;2022-08-01T12:22:04;3.58;;;2.25;;
41685;SDS011;27370;42.764;23.432;2022-08-01T12:24:32;3.53;;;2.25;;
41685;SDS011;27370;42.764;23.432;2022-08-01T12:27:01;4.97;;;2.17;;
41685;SDS011;27370;42.764;23.432;2022-08-01T12:29:35;4.05;;;2.45;;
41685;SDS011;27370;42.764;23.432;2022-08-01T12:35:07;3.85;;;2.13;;
41685;SDS011;27370;42.764;23.432;2022-08-01T12:37:38;5.20;;;2.30;;
41685;SDS011;27370;42.764;23.432;2022-08-01T12:42:44;3.72;;;2.17;;
41685;SDS011;27370;42.764;23.432;2022-08-01T12:45:13;3.40;;;2.20;;
41685;SDS011;27370;42.764;23.432;2022-08-01T12:47:41;3.58;;;2.10;;
41685;SDS011;27370;42.764;23.432;2022-08-01T12:50:11;4.95;;;2.10;;
41685;SDS011;27370;42.764;23.432;2022-08-01T12:52:40;4.35;;;2.17;;
41685;SDS011;27370;42.764;23.432;2022-08-01T12:55:16;8.07;;;2.30;;
41685;SDS011;27370;42.764;23.432;2022-08-01T12:57:47;3.22;;;2.30;;
41685;SDS011;27370;42.764;23.432;2022-08-01T13:00:22;4.35;;;2.22;;
41685;SDS011;27370;42.764;23.432;2022-08-01T13:02:50;4.72;;;2.25;;
41685;SDS011;27370;42.764;23.432;2022-08-01T13:05:26;4.95;;;2.15;;
41685;SDS011;27370;42.764;23.432;2022-08-01T13:07:52;4.75;;;2.50;;
41685;SDS011;27370;42.764;23.432;2022-08-01T13:10:28;4.13;;;2.10;;
41685;SDS011;27370;42.764;23.432;2022-08-01T13:12:57;4.10;;;2.20;;
41685;SDS011;27370;42.764;23.432;2022-08-01T13:15:33;6.82;;;2.28;;
41685;SDS011;27370;42.764;23.432;2022-08-01T13:18:01;4.70;;;2.25;;
41685;SDS011;27370;42.764;23.432;2022-08-01T13:20:47;5.13;;;2.25;;
41685;SDS011;27370;42.764;23.432;2022-08-01T13:23:13;4.68;;;2.30;;
41685;SDS011;27370;42.764;23.432;2022-08-01T13:25:51;4.95;;;2.25;;
41685;SDS011;27370;42.764;23.432;2022-08-01T13:28:24;3.88;;;2.00;;
41685;SDS011;27370;42.764;23.432;2022-08-01T13:30:55;5.20;;;2.50;;
41685;SDS011;27370;42.764;23.432;2022-08-01T13:33:25;3.60;;;2.15;;
41685;SDS011;27370;42.764;23.432;2022-08-01T13:35:53;5.60;;;2.28;;
41685;SDS011;27370;42.764;23.432;2022-08-01T13:38:19;5.50;;;2.20;;
41685;SDS011;27370;42.764;23.432;2022-08-01T13:41:05;3.15;;;2.03;;
41685;SDS011;27370;42.764;23.432;2022-08-01T13:43:31;3.17;;;2.20;;
41685;SDS011;27370;42.764;23.432;2022-08-01T13:45:57;4.97;;;2.10;;
41685;SDS011;27370;42.764;23.432;2022-08-01T13:48:23;3.88;;;2.10;;
41685;SDS011;27370;42.764;23.432;2022-08-01T13:50:48;4.22;;;1.95;;
41685;SDS011;27370;42.764;23.432;2022-08-01T13:53:14;5.43;;;2.10;;
41685;SDS011;27370;42.764;23.432;2022-08-01T13:55:39;2.70;;;2.10;;
41685;SDS011;27370;42.764;23.432;2022-08-01T13:58:05;6.97;;;2.42;;
41685;SDS011;27370;42.764;23.432;2022-08-01T14:00:31;6.18;;;2.40;;
41685;SDS011;27370;42.764;23.432;2022-08-01T14:02:57;8.05;;;2.40;;
41685;SDS011;27370;42.764;23.432;2022-08-01T14:05:22;4.13;;;2.17;;
41685;SDS011;27370;42.764;23.432;2022-08-01T14:07:48;5.53;;;2.35;;
41685;SDS011;27370;42.764;23.432;2022-08-01T14:10:13;6.07;;;2.45;;
41685;SDS011;27370;42.764;23.432;2022-08-01T14:12:39;2.88;;;2.08;;
41685;SDS011;27370;42.764;23.432;2022-08-01T14:15:04;3.88;;;2.05;;
41685;SDS011;27370;42.764;23.432;2022-08-01T14:17:30;2.58;;;1.98;;
41685;SDS011;27370;42.764;23.432;2022-08-01T14:19:57;3.55;;;2.15;;
41685;SDS011;27370;42.764;23.432;2022-08-01T14:22:24;2.75;;;2.15;;
41685;SDS011;27370;42.764;23.432;2022-08-01T14:24:49;2.35;;;2.00;;
41685;SDS011;27370;42.764;23.432;2022-08-01T14:27:15;3.17;;;1.90;;
41685;SDS011;27370;42.764;23.432;2022-08-01T14:29:40;3.08;;;2.10;;
41685;SDS011;27370;42.764;23.432;2022-08-01T14:32:06;6.38;;;2.30;;
41685;SDS011;27370;42.764;23.432;2022-08-01T14:34:31;4.80;;;2.10;;
41685;SDS011;27370;42.764;23.432;2022-08-01T14:36:57;3.63;;;2.13;;
41685;SDS011;27370;42.764;23.432;2022-08-01T14:39:22;4.85;;;2.22;;
41685;SDS011;27370;42.764;23.432;2022-08-01T14:41:48;4.10;;;2.15;;
41685;SDS011;27370;42.764;23.432;2022-08-01T14:44:14;4.93;;;2.47;;
41685;SDS011;27370;42.764;23.432;2022-08-01T14:46:39;7.38;;;2.53;;
41685;SDS011;27370;42.764;23.432;2022-08-01T14:49:06;7.53;;;3.45;;
41685;SDS011;27370;42.764;23.432;2022-08-01T14:51:31;4.85;;;2.42;;
41685;SDS011;27370;42.764;23.432;2022-08-01T14:53:59;2.85;;;1.90;;
41685;SDS011;27370;42.764;23.432;2022-08-01T14:56:24;16.25;;;3.00;;
41685;SDS011;27370;42.764;23.432;2022-08-01T14:58:50;3.75;;;2.17;;
41685;SDS011;27370;42.764;23.432;2022-08-01T15:01:16;3.90;;;2.30;;
41685;SDS011;27370;42.764;23.432;2022-08-01T15:03:42;5.65;;;2.20;;
41685;SDS011;27370;42.764;23.432;2022-08-01T15:06:08;2.95;;;1.90;;
41685;SDS011;27370;42.764;23.432;2022-08-01T15:08:36;3.58;;;2.00;;
41685;SDS011;27370;42.764;23.432;2022-08-01T15:11:02;5.57;;;2.20;;